sensor_id;sensor_type;location;lat;lon;timestamp;P1;durP1;ratioP1;P2;durP2;ratioP2
16900;SDS011;8567;52.540;6.434;2022-09-02T00:00:59;10.77;;;10.27;;
16900;SDS011;8567;52.540;6.434;2022-09-02T00:03:28;10.02;;;9.43;;
16900;SDS011;8567;52.540;6.434;2022-09-02T00:05:59;10.02;;;9.45;;
16900;SDS011;8567;52.540;6.434;2022-09-02T00:08:27;10.40;;;9.90;;
16900;SDS011;8567;52.540;6.434;2022-09-02T00:10:56;9.32;;;8.90;;
16900;SDS011;8567;52.540;6.434;2022-09-02T00:13:25;8.85;;;8.35;;
16900;SDS011;8567;52.540;6.434;2022-09-02T00:15:53;9.43;;;8.98;;
16900;SDS011;8567;52.540;6.434;2022-09-02T00:18:20;9.57;;;9.00;;
16900;SDS011;8567;52.540;6.434;2022-09-02T00:20:47;8.18;;;7.78;;
16900;SDS011;8567;52.540;6.434;2022-09-02T00:23:16;8.15;;;7.75;;
16900;SDS011;8567;52.540;6.434;2022-09-02T00:25:43;7.22;;;6.82;;
16900;SDS011;8567;52.540;6.434;2022-09-02T00:28:11;8.52;;;8.13;;
16900;SDS011;8567;52.540;6.434;2022-09-02T00:30:39;8.13;;;7.72;;
16900;SDS011;8567;52.540;6.434;2022-09-02T00:33:07;8.48;;;8.07;;
16900;SDS011;8567;52.540;6.434;2022-09-02T00:35:35;8.38;;;7.97;;
16900;SDS011;8567;52.540;6.434;2022-09-02T00:38:02;7.93;;;7.53;;
16900;SDS011;8567;52.540;6.434;2022-09-02T00:40:32;8.48;;;8.07;;
16900;SDS011;8567;52.540;6.434;2022-09-02T00:43:00;7.45;;;7.05;;
16900;SDS011;8567;52.540;6.434;2022-09-02T00:45:30;7.70;;;7.30;;
16900;SDS011;8567;52.540;6.434;2022-09-02T00:47:56;7.35;;;7.00;;
16900;SDS011;8567;52.540;6.434;2022-09-02T00:50:25;7.68;;;7.28;;
16900;SDS011;8567;52.540;6.434;2022-09-02T00:52:58;7.32;;;6.95;;
16900;SDS011;8567;52.540;6.434;2022-09-02T00:55:30;7.25;;;6.95;;
16900;SDS011;8567;52.540;6.434;2022-09-02T00:58:02;7.47;;;7.07;;
16900;SDS011;8567;52.540;6.434;2022-09-02T01:00:33;7.28;;;6.97;;
16900;SDS011;8567;52.540;6.434;2022-09-02T01:03:03;6.93;;;6.63;;
16900;SDS011;8567;52.540;6.434;2022-09-02T01:05:32;7.40;;;7.10;;
16900;SDS011;8567;52.540;6.434;2022-09-02T01:08:02;7.72;;;7.32;;
16900;SDS011;8567;52.540;6.434;2022-09-02T01:10:32;6.70;;;6.40;;
16900;SDS011;8567;52.540;6.434;2022-09-02T01:13:03;6.53;;;6.22;;
16900;SDS011;8567;52.540;6.434;2022-09-02T01:15:33;7.03;;;6.63;;
16900;SDS011;8567;52.540;6.434;2022-09-02T01:18:01;6.82;;;6.47;;
16900;SDS011;8567;52.540;6.434;2022-09-02T01:20:29;6.65;;;6.35;;
16900;SDS011;8567;52.540;6.434;2022-09-02T01:22:58;6.75;;;6.35;;
16900;SDS011;8567;52.540;6.434;2022-09-02T01:25:27;6.82;;;6.43;;
16900;SDS011;8567;52.540;6.434;2022-09-02T01:27:57;6.45;;;6.15;;
16900;SDS011;8567;52.540;6.434;2022-09-02T01:30:26;6.25;;;5.95;;
16900;SDS011;8567;52.540;6.434;2022-09-02T01:32:53;5.90;;;5.60;;
16900;SDS011;8567;52.540;6.434;2022-09-02T01:35:20;6.03;;;5.72;;
16900;SDS011;8567;52.540;6.434;2022-09-02T01:37:48;6.82;;;6.53;;
16900;SDS011;8567;52.540;6.434;2022-09-02T01:40:16;6.00;;;5.70;;
16900;SDS011;8567;52.540;6.434;2022-09-02T01:42:43;6.40;;;6.00;;
16900;SDS011;8567;52.540;6.434;2022-09-02T01:45:11;6.40;;;6.10;;
16900;SDS011;8567;52.540;6.434;2022-09-02T01:47:39;6.47;;;6.07;;
16900;SDS011;8567;52.540;6.434;2022-09-02T01:50:07;6.13;;;5.82;;
16900;SDS011;8567;52.540;6.434;2022-09-02T01:52:34;6.00;;;5.70;;
16900;SDS011;8567;52.540;6.434;2022-09-02T01:55:01;6.45;;;6.05;;
16900;SDS011;8567;52.540;6.434;2022-09-02T01:57:29;6.45;;;6.13;;
16900;SDS011;8567;52.540;6.434;2022-09-02T01:59:56;5.68;;;5.40;;
16900;SDS011;8567;52.540;6.434;2022-09-02T02:02:25;6.10;;;5.80;;
16900;SDS011;8567;52.540;6.434;2022-09-02T02:04:52;5.72;;;5.43;;
16900;SDS011;8567;52.540;6.434;2022-09-02T02:07:20;5.57;;;5.28;;
16900;SDS011;8567;52.540;6.434;2022-09-02T02:09:48;6.22;;;5.93;;
16900;SDS011;8567;52.540;6.434;2022-09-02T02:12:16;5.80;;;5.50;;
16900;SDS011;8567;52.540;6.434;2022-09-02T02:14:44;5.25;;;5.05;;
16900;SDS011;8567;52.540;6.434;2022-09-02T02:17:11;8.15;;;7.75;;
16900;SDS011;8567;52.540;6.434;2022-09-02T02:19:38;9.48;;;9.05;;
16900;SDS011;8567;52.540;6.434;2022-09-02T02:22:04;9.77;;;9.30;;
16900;SDS011;8567;52.540;6.434;2022-09-02T02:24:31;10.35;;;9.85;;
16900;SDS011;8567;52.540;6.434;2022-09-02T02:26:58;8.75;;;8.35;;
16900;SDS011;8567;52.540;6.434;2022-09-02T02:29:25;8.05;;;7.68;;
16900;SDS011;8567;52.540;6.434;2022-09-02T02:31:54;8.63;;;8.23;;
16900;SDS011;8567;52.540;6.434;2022-09-02T02:34:20;8.50;;;8.10;;
16900;SDS011;8567;52.540;6.434;2022-09-02T02:36:47;7.93;;;7.53;;
16900;SDS011;8567;52.540;6.434;2022-09-02T02:39:14;7.63;;;7.32;;
16900;SDS011;8567;52.540;6.434;2022-09-02T02:41:41;8.13;;;7.72;;
16900;SDS011;8567;52.540;6.434;2022-09-02T02:44:08;8.20;;;7.80;;
16900;SDS011;8567;52.540;6.434;2022-09-02T02:46:35;7.68;;;7.35;;
16900;SDS011;8567;52.540;6.434;2022-09-02T02:49:03;7.63;;;7.28;;
16900;SDS011;8567;52.540;6.434;2022-09-02T02:51:31;8.18;;;7.70;;
16900;SDS011;8567;52.540;6.434;2022-09-02T02:53:59;7.65;;;7.25;;
16900;SDS011;8567;52.540;6.434;2022-09-02T02:56:26;7.60;;;7.30;;
16900;SDS011;8567;52.540;6.434;2022-09-02T02:58:54;7.43;;;7.13;;
16900;SDS011;8567;52.540;6.434;2022-09-02T03:01:21;7.75;;;7.38;;
16900;SDS011;8567;52.540;6.434;2022-09-02T03:03:48;7.65;;;7.30;;
16900;SDS011;8567;52.540;6.434;2022-09-02T03:06:17;7.32;;;7.03;;
16900;SDS011;8567;52.540;6.434;2022-09-02T03:08:44;8.30;;;7.90;;
16900;SDS011;8567;52.540;6.434;2022-09-02T03:11:12;7.45;;;7.05;;
16900;SDS011;8567;52.540;6.434;2022-09-02T03:13:39;6.78;;;6.47;;
16900;SDS011;8567;52.540;6.434;2022-09-02T03:16:06;7.05;;;6.75;;
16900;SDS011;8567;52.540;6.434;2022-09-02T03:18:33;7.45;;;7.05;;
16900;SDS011;8567;52.540;6.434;2022-09-02T03:21:00;7.63;;;7.32;;
16900;SDS011;8567;52.540;6.434;2022-09-02T03:23:32;6.95;;;6.65;;
16900;SDS011;8567;52.540;6.434;2022-09-02T03:25:59;7.28;;;6.97;;
16900;SDS011;8567;52.540;6.434;2022-09-02T03:28:26;7.22;;;6.93;;
16900;SDS011;8567;52.540;6.434;2022-09-02T03:30:53;6.68;;;6.38;;
16900;SDS011;8567;52.540;6.434;2022-09-02T03:33:20;6.60;;;6.30;;
16900;SDS011;8567;52.540;6.434;2022-09-02T03:35:47;6.75;;;6.45;;
16900;SDS011;8567;52.540;6.434;2022-09-02T03:38:13;6.78;;;6.47;;
16900;SDS011;8567;52.540;6.434;2022-09-02T03:40:41;6.85;;;6.50;;
16900;SDS011;8567;52.540;6.434;2022-09-02T03:43:09;7.18;;;6.88;;
16900;SDS011;8567;52.540;6.434;2022-09-02T03:45:36;6.88;;;6.45;;
16900;SDS011;8567;52.540;6.434;2022-09-02T03:48:05;6.57;;;6.28;;
16900;SDS011;8567;52.540;6.434;2022-09-02T03:50:34;7.07;;;6.78;;
16900;SDS011;8567;52.540;6.434;2022-09-02T03:53:03;6.72;;;6.32;;
16900;SDS011;8567;52.540;6.434;2022-09-02T03:55:31;6.15;;;5.85;;
16900;SDS011;8567;52.540;6.434;2022-09-02T03:57:59;6.50;;;6.10;;
16900;SDS011;8567;52.540;6.434;2022-09-02T04:00:26;6.43;;;6.13;;
16900;SDS011;8567;52.540;6.434;2022-09-02T04:02:56;6.55;;;6.25;;
16900;SDS011;8567;52.540;6.434;2022-09-02T04:05:23;6.50;;;6.20;;
16900;SDS011;8567;52.540;6.434;2022-09-02T04:07:50;6.35;;;6.05;;
16900;SDS011;8567;52.540;6.434;2022-09-02T04:10:17;6.53;;;6.22;;
16900;SDS011;8567;52.540;6.434;2022-09-02T04:12:45;6.38;;;6.07;;
16900;SDS011;8567;52.540;6.434;2022-09-02T04:15:13;6.38;;;6.07;;
16900;SDS011;8567;52.540;6.434;2022-09-02T04:17:40;6.03;;;5.72;;
16900;SDS011;8567;52.540;6.434;2022-09-02T04:20:09;5.95;;;5.70;;
16900;SDS011;8567;52.540;6.434;2022-09-02T04:22:37;6.18;;;5.90;;
16900;SDS011;8567;52.540;6.434;2022-09-02T04:25:04;6.20;;;5.90;;
16900;SDS011;8567;52.540;6.434;2022-09-02T04:27:32;6.40;;;6.10;;
16900;SDS011;8567;52.540;6.434;2022-09-02T04:30:00;6.18;;;5.90;;
16900;SDS011;8567;52.540;6.434;2022-09-02T04:32:29;6.20;;;5.90;;
16900;SDS011;8567;52.540;6.434;2022-09-02T04:34:56;6.53;;;6.22;;
16900;SDS011;8567;52.540;6.434;2022-09-02T04:37:23;5.90;;;5.60;;
16900;SDS011;8567;52.540;6.434;2022-09-02T04:39:50;5.70;;;5.50;;
16900;SDS011;8567;52.540;6.434;2022-09-02T04:42:17;6.13;;;5.82;;
16900;SDS011;8567;52.540;6.434;2022-09-02T04:44:45;5.53;;;5.32;;
16900;SDS011;8567;52.540;6.434;2022-09-02T04:47:11;6.07;;;5.80;;
16900;SDS011;8567;52.540;6.434;2022-09-02T04:49:40;5.40;;;5.20;;
16900;SDS011;8567;52.540;6.434;2022-09-02T04:52:07;5.78;;;5.47;;
16900;SDS011;8567;52.540;6.434;2022-09-02T04:54:34;7.03;;;6.72;;
16900;SDS011;8567;52.540;6.434;2022-09-02T04:57:01;5.72;;;5.45;;
16900;SDS011;8567;52.540;6.434;2022-09-02T04:59:28;5.50;;;5.30;;
16900;SDS011;8567;52.540;6.434;2022-09-02T05:01:56;6.13;;;5.82;;
16900;SDS011;8567;52.540;6.434;2022-09-02T05:04:24;6.25;;;5.95;;
16900;SDS011;8567;52.540;6.434;2022-09-02T05:06:52;6.20;;;5.90;;
16900;SDS011;8567;52.540;6.434;2022-09-02T05:09:19;5.57;;;5.35;;
16900;SDS011;8567;52.540;6.434;2022-09-02T05:11:46;5.55;;;5.35;;
16900;SDS011;8567;52.540;6.434;2022-09-02T05:14:13;5.65;;;5.45;;
16900;SDS011;8567;52.540;6.434;2022-09-02T05:16:41;6.28;;;5.97;;
16900;SDS011;8567;52.540;6.434;2022-09-02T05:19:09;5.75;;;5.47;;
16900;SDS011;8567;52.540;6.434;2022-09-02T05:21:38;5.50;;;5.30;;
16900;SDS011;8567;52.540;6.434;2022-09-02T05:24:07;5.30;;;5.10;;
16900;SDS011;8567;52.540;6.434;2022-09-02T05:26:34;5.78;;;5.55;;
16900;SDS011;8567;52.540;6.434;2022-09-02T05:29:01;5.53;;;5.32;;
16900;SDS011;8567;52.540;6.434;2022-09-02T05:31:29;5.82;;;5.55;;
16900;SDS011;8567;52.540;6.434;2022-09-02T05:33:56;5.35;;;5.15;;
16900;SDS011;8567;52.540;6.434;2022-09-02T05:36:23;5.45;;;5.25;;
16900;SDS011;8567;52.540;6.434;2022-09-02T05:38:50;5.88;;;5.63;;
16900;SDS011;8567;52.540;6.434;2022-09-02T05:41:19;6.22;;;5.95;;
16900;SDS011;8567;52.540;6.434;2022-09-02T05:43:48;5.30;;;5.00;;
16900;SDS011;8567;52.540;6.434;2022-09-02T05:46:17;5.50;;;5.30;;
16900;SDS011;8567;52.540;6.434;2022-09-02T05:48:45;5.47;;;5.25;;
16900;SDS011;8567;52.540;6.434;2022-09-02T05:51:30;5.22;;;5.03;;
16900;SDS011;8567;52.540;6.434;2022-09-02T05:53:58;5.22;;;5.03;;
16900;SDS011;8567;52.540;6.434;2022-09-02T05:56:27;5.38;;;5.15;;
16900;SDS011;8567;52.540;6.434;2022-09-02T05:58:55;5.38;;;5.15;;
16900;SDS011;8567;52.540;6.434;2022-09-02T06:01:24;5.28;;;5.07;;
16900;SDS011;8567;52.540;6.434;2022-09-02T06:03:51;5.68;;;5.43;;
16900;SDS011;8567;52.540;6.434;2022-09-02T06:06:18;5.60;;;5.38;;
16900;SDS011;8567;52.540;6.434;2022-09-02T06:08:46;6.35;;;6.05;;
16900;SDS011;8567;52.540;6.434;2022-09-02T06:11:13;5.68;;;5.47;;
16900;SDS011;8567;52.540;6.434;2022-09-02T06:13:43;6.13;;;5.82;;
16900;SDS011;8567;52.540;6.434;2022-09-02T06:16:12;5.90;;;5.60;;
16900;SDS011;8567;52.540;6.434;2022-09-02T06:18:40;5.35;;;5.15;;
16900;SDS011;8567;52.540;6.434;2022-09-02T06:21:06;5.85;;;5.55;;
16900;SDS011;8567;52.540;6.434;2022-09-02T06:23:33;5.25;;;5.05;;
16900;SDS011;8567;52.540;6.434;2022-09-02T06:26:02;5.43;;;5.13;;
16900;SDS011;8567;52.540;6.434;2022-09-02T06:28:29;5.38;;;4.97;;
16900;SDS011;8567;52.540;6.434;2022-09-02T06:30:58;5.28;;;5.05;;
16900;SDS011;8567;52.540;6.434;2022-09-02T06:33:31;5.07;;;4.82;;
16900;SDS011;8567;52.540;6.434;2022-09-02T06:35:57;5.78;;;5.47;;
16900;SDS011;8567;52.540;6.434;2022-09-02T06:38:24;5.60;;;5.30;;
16900;SDS011;8567;52.540;6.434;2022-09-02T06:40:52;5.68;;;5.38;;
16900;SDS011;8567;52.540;6.434;2022-09-02T06:43:20;5.45;;;5.15;;
16900;SDS011;8567;52.540;6.434;2022-09-02T06:45:47;5.43;;;5.15;;
16900;SDS011;8567;52.540;6.434;2022-09-02T06:48:15;5.68;;;5.38;;
16900;SDS011;8567;52.540;6.434;2022-09-02T06:50:43;6.05;;;5.78;;
16900;SDS011;8567;52.540;6.434;2022-09-02T06:53:12;5.43;;;5.13;;
16900;SDS011;8567;52.540;6.434;2022-09-02T06:55:39;5.47;;;5.28;;
16900;SDS011;8567;52.540;6.434;2022-09-02T06:58:08;5.45;;;5.15;;
16900;SDS011;8567;52.540;6.434;2022-09-02T07:00:36;4.93;;;4.68;;
16900;SDS011;8567;52.540;6.434;2022-09-02T07:03:03;5.80;;;5.50;;
16900;SDS011;8567;52.540;6.434;2022-09-02T07:05:58;5.93;;;5.65;;
16900;SDS011;8567;52.540;6.434;2022-09-02T07:08:27;4.97;;;4.78;;
16900;SDS011;8567;52.540;6.434;2022-09-02T07:10:55;5.57;;;5.28;;
16900;SDS011;8567;52.540;6.434;2022-09-02T07:13:22;5.43;;;5.20;;
16900;SDS011;8567;52.540;6.434;2022-09-02T07:15:48;6.20;;;5.90;;
16900;SDS011;8567;52.540;6.434;2022-09-02T07:18:15;5.97;;;5.57;;
16900;SDS011;8567;52.540;6.434;2022-09-02T07:20:43;6.15;;;5.85;;
16900;SDS011;8567;52.540;6.434;2022-09-02T07:23:13;6.38;;;6.07;;
16900;SDS011;8567;52.540;6.434;2022-09-02T07:25:41;6.35;;;6.05;;
16900;SDS011;8567;52.540;6.434;2022-09-02T07:28:08;6.78;;;6.47;;
16900;SDS011;8567;52.540;6.434;2022-09-02T07:30:35;7.03;;;6.63;;
16900;SDS011;8567;52.540;6.434;2022-09-02T07:33:05;7.45;;;7.05;;
16900;SDS011;8567;52.540;6.434;2022-09-02T07:35:32;6.80;;;6.47;;
16900;SDS011;8567;52.540;6.434;2022-09-02T07:37:59;7.53;;;7.03;;
16900;SDS011;8567;52.540;6.434;2022-09-02T07:40:29;7.07;;;6.68;;
16900;SDS011;8567;52.540;6.434;2022-09-02T07:42:56;6.82;;;6.53;;
16900;SDS011;8567;52.540;6.434;2022-09-02T07:45:23;6.40;;;6.10;;
16900;SDS011;8567;52.540;6.434;2022-09-02T07:47:50;6.88;;;6.47;;
16900;SDS011;8567;52.540;6.434;2022-09-02T07:50:19;6.63;;;6.22;;
16900;SDS011;8567;52.540;6.434;2022-09-02T07:52:45;6.38;;;6.07;;
16900;SDS011;8567;52.540;6.434;2022-09-02T07:55:13;6.35;;;6.03;;
16900;SDS011;8567;52.540;6.434;2022-09-02T07:57:41;7.68;;;7.28;;
16900;SDS011;8567;52.540;6.434;2022-09-02T08:00:09;7.30;;;6.95;;
16900;SDS011;8567;52.540;6.434;2022-09-02T08:02:37;6.93;;;6.53;;
16900;SDS011;8567;52.540;6.434;2022-09-02T08:05:04;7.57;;;7.18;;
16900;SDS011;8567;52.540;6.434;2022-09-02T08:07:31;7.35;;;6.85;;
16900;SDS011;8567;52.540;6.434;2022-09-02T08:09:58;6.43;;;6.13;;
16900;SDS011;8567;52.540;6.434;2022-09-02T08:12:25;6.50;;;6.20;;
16900;SDS011;8567;52.540;6.434;2022-09-02T08:14:54;6.82;;;6.43;;
16900;SDS011;8567;52.540;6.434;2022-09-02T08:17:22;6.78;;;6.43;;
16900;SDS011;8567;52.540;6.434;2022-09-02T08:19:48;6.45;;;6.15;;
16900;SDS011;8567;52.540;6.434;2022-09-02T08:22:15;7.13;;;6.72;;
16900;SDS011;8567;52.540;6.434;2022-09-02T08:24:42;7.80;;;7.40;;
16900;SDS011;8567;52.540;6.434;2022-09-02T08:27:08;7.18;;;6.78;;
16900;SDS011;8567;52.540;6.434;2022-09-02T08:29:35;6.97;;;6.60;;
16900;SDS011;8567;52.540;6.434;2022-09-02T08:32:03;7.07;;;6.57;;
16900;SDS011;8567;52.540;6.434;2022-09-02T08:34:30;7.72;;;7.32;;
16900;SDS011;8567;52.540;6.434;2022-09-02T08:36:57;6.68;;;6.35;;
16900;SDS011;8567;52.540;6.434;2022-09-02T08:39:24;7.22;;;6.85;;
16900;SDS011;8567;52.540;6.434;2022-09-02T08:41:53;7.25;;;6.88;;
16900;SDS011;8567;52.540;6.434;2022-09-02T08:44:26;7.32;;;7.00;;
16900;SDS011;8567;52.540;6.434;2022-09-02T08:46:55;7.40;;;7.03;;
16900;SDS011;8567;52.540;6.434;2022-09-02T08:49:27;7.60;;;7.20;;
16900;SDS011;8567;52.540;6.434;2022-09-02T08:52:00;6.30;;;6.00;;
16900;SDS011;8567;52.540;6.434;2022-09-02T08:54:29;6.60;;;6.30;;
16900;SDS011;8567;52.540;6.434;2022-09-02T08:57:00;7.18;;;6.78;;
16900;SDS011;8567;52.540;6.434;2022-09-02T08:59:27;7.28;;;6.95;;
16900;SDS011;8567;52.540;6.434;2022-09-02T09:01:58;7.25;;;6.85;;
16900;SDS011;8567;52.540;6.434;2022-09-02T09:04:36;7.10;;;6.70;;
16900;SDS011;8567;52.540;6.434;2022-09-02T09:07:28;6.43;;;6.10;;
16900;SDS011;8567;52.540;6.434;2022-09-02T09:10:03;7.45;;;7.05;;
16900;SDS011;8567;52.540;6.434;2022-09-02T09:12:41;7.88;;;7.47;;
16900;SDS011;8567;52.540;6.434;2022-09-02T09:15:26;5.97;;;5.68;;
16900;SDS011;8567;52.540;6.434;2022-09-02T09:17:59;6.43;;;6.13;;
16900;SDS011;8567;52.540;6.434;2022-09-02T09:20:30;7.13;;;6.72;;
16900;SDS011;8567;52.540;6.434;2022-09-02T09:23:00;6.40;;;6.10;;
16900;SDS011;8567;52.540;6.434;2022-09-02T09:25:31;7.47;;;7.10;;
16900;SDS011;8567;52.540;6.434;2022-09-02T09:27:58;7.07;;;6.78;;
16900;SDS011;8567;52.540;6.434;2022-09-02T09:30:26;6.57;;;6.28;;
16900;SDS011;8567;52.540;6.434;2022-09-02T09:32:55;6.75;;;6.45;;
16900;SDS011;8567;52.540;6.434;2022-09-02T09:35:24;6.80;;;6.50;;
16900;SDS011;8567;52.540;6.434;2022-09-02T09:37:53;6.93;;;6.60;;
16900;SDS011;8567;52.540;6.434;2022-09-02T09:40:25;6.15;;;5.85;;
16900;SDS011;8567;52.540;6.434;2022-09-02T09:42:55;6.60;;;6.30;;
16900;SDS011;8567;52.540;6.434;2022-09-02T09:45:27;7.07;;;6.75;;
16900;SDS011;8567;52.540;6.434;2022-09-02T09:50:48;6.63;;;6.32;;
16900;SDS011;8567;52.540;6.434;2022-09-02T09:53:39;6.43;;;6.13;;
16900;SDS011;8567;52.540;6.434;2022-09-02T09:56:07;6.18;;;5.88;;
16900;SDS011;8567;52.540;6.434;2022-09-02T09:58:49;6.85;;;6.45;;
16900;SDS011;8567;52.540;6.434;2022-09-02T10:01:17;6.13;;;5.82;;
16900;SDS011;8567;52.540;6.434;2022-09-02T10:03:47;6.13;;;5.82;;
16900;SDS011;8567;52.540;6.434;2022-09-02T10:06:17;6.22;;;5.93;;
16900;SDS011;8567;52.540;6.434;2022-09-02T10:08:51;6.10;;;5.82;;
16900;SDS011;8567;52.540;6.434;2022-09-02T10:11:21;5.63;;;5.32;;
16900;SDS011;8567;52.540;6.434;2022-09-02T10:13:50;5.68;;;5.38;;
16900;SDS011;8567;52.540;6.434;2022-09-02T10:16:21;5.88;;;5.57;;
16900;SDS011;8567;52.540;6.434;2022-09-02T10:19:08;6.45;;;6.15;;
16900;SDS011;8567;52.540;6.434;2022-09-02T10:21:47;6.57;;;6.28;;
16900;SDS011;8567;52.540;6.434;2022-09-02T10:24:31;6.30;;;6.00;;
16900;SDS011;8567;52.540;6.434;2022-09-02T10:27:10;5.05;;;4.85;;
16900;SDS011;8567;52.540;6.434;2022-09-02T10:29:47;5.75;;;5.45;;
16900;SDS011;8567;52.540;6.434;2022-09-02T10:32:24;6.30;;;5.95;;
16900;SDS011;8567;52.540;6.434;2022-09-02T10:35:05;5.95;;;5.65;;
16900;SDS011;8567;52.540;6.434;2022-09-02T10:37:38;5.95;;;5.68;;
16900;SDS011;8567;52.540;6.434;2022-09-02T10:40:14;6.03;;;5.72;;
16900;SDS011;8567;52.540;6.434;2022-09-02T10:42:45;6.07;;;5.78;;
16900;SDS011;8567;52.540;6.434;2022-09-02T10:45:22;6.50;;;6.20;;
16900;SDS011;8567;52.540;6.434;2022-09-02T10:47:56;6.22;;;5.88;;
16900;SDS011;8567;52.540;6.434;2022-09-02T10:50:38;5.85;;;5.57;;
16900;SDS011;8567;52.540;6.434;2022-09-02T10:56:04;6.10;;;5.82;;
16900;SDS011;8567;52.540;6.434;2022-09-02T10:58:38;6.38;;;6.07;;
16900;SDS011;8567;52.540;6.434;2022-09-02T11:01:11;6.78;;;6.47;;
16900;SDS011;8567;52.540;6.434;2022-09-02T11:03:47;6.55;;;6.25;;
16900;SDS011;8567;52.540;6.434;2022-09-02T11:06:24;5.95;;;5.72;;
16900;SDS011;8567;52.540;6.434;2022-09-02T11:08:55;6.63;;;6.32;;
16900;SDS011;8567;52.540;6.434;2022-09-02T11:11:28;6.97;;;6.68;;
16900;SDS011;8567;52.540;6.434;2022-09-02T11:14:00;6.38;;;6.07;;
16900;SDS011;8567;52.540;6.434;2022-09-02T11:16:33;6.43;;;6.13;;
16900;SDS011;8567;52.540;6.434;2022-09-02T11:19:05;6.63;;;6.22;;
16900;SDS011;8567;52.540;6.434;2022-09-02T11:21:42;6.40;;;6.10;;
16900;SDS011;8567;52.540;6.434;2022-09-02T11:24:18;6.40;;;6.10;;
16900;SDS011;8567;52.540;6.434;2022-09-02T11:26:55;6.45;;;6.15;;
16900;SDS011;8567;52.540;6.434;2022-09-02T11:29:31;6.47;;;6.18;;
16900;SDS011;8567;52.540;6.434;2022-09-02T11:32:06;6.18;;;5.88;;
16900;SDS011;8567;52.540;6.434;2022-09-02T11:34:40;6.35;;;6.05;;
16900;SDS011;8567;52.540;6.434;2022-09-02T11:37:11;6.57;;;6.28;;
16900;SDS011;8567;52.540;6.434;2022-09-02T11:39:49;6.38;;;6.07;;
16900;SDS011;8567;52.540;6.434;2022-09-02T11:42:24;6.03;;;5.72;;
16900;SDS011;8567;52.540;6.434;2022-09-02T11:45:33;6.75;;;6.45;;
16900;SDS011;8567;52.540;6.434;2022-09-02T11:48:43;5.68;;;5.45;;
16900;SDS011;8567;52.540;6.434;2022-09-02T11:54:13;5.70;;;5.47;;
16900;SDS011;8567;52.540;6.434;2022-09-02T11:56:43;6.18;;;5.88;;
16900;SDS011;8567;52.540;6.434;2022-09-02T11:59:20;6.60;;;6.30;;
16900;SDS011;8567;52.540;6.434;2022-09-02T12:01:49;6.28;;;5.97;;
16900;SDS011;8567;52.540;6.434;2022-09-02T12:04:18;6.55;;;6.25;;
16900;SDS011;8567;52.540;6.434;2022-09-02T12:09:49;6.55;;;6.25;;
16900;SDS011;8567;52.540;6.434;2022-09-02T12:15:21;6.38;;;6.07;;
16900;SDS011;8567;52.540;6.434;2022-09-02T12:21:02;6.10;;;5.80;;
16900;SDS011;8567;52.540;6.434;2022-09-02T12:29:32;6.18;;;5.88;;
16900;SDS011;8567;52.540;6.434;2022-09-02T12:32:01;6.28;;;5.97;;
16900;SDS011;8567;52.540;6.434;2022-09-02T12:34:51;7.40;;;7.10;;
16900;SDS011;8567;52.540;6.434;2022-09-02T12:40:16;6.68;;;6.38;;
16900;SDS011;8567;52.540;6.434;2022-09-02T12:42:49;6.82;;;6.53;;
16900;SDS011;8567;52.540;6.434;2022-09-02T12:45:22;7.22;;;6.93;;
16900;SDS011;8567;52.540;6.434;2022-09-02T12:47:52;7.72;;;7.30;;
16900;SDS011;8567;52.540;6.434;2022-09-02T12:50:26;7.55;;;7.18;;
16900;SDS011;8567;52.540;6.434;2022-09-02T12:55:59;7.50;;;7.20;;
16900;SDS011;8567;52.540;6.434;2022-09-02T12:58:28;7.55;;;7.22;;
16900;SDS011;8567;52.540;6.434;2022-09-02T13:01:03;8.45;;;8.05;;
16900;SDS011;8567;52.540;6.434;2022-09-02T13:03:42;8.50;;;8.10;;
16900;SDS011;8567;52.540;6.434;2022-09-02T13:06:31;8.30;;;7.90;;
16900;SDS011;8567;52.540;6.434;2022-09-02T13:09:12;8.88;;;8.48;;
16900;SDS011;8567;52.540;6.434;2022-09-02T13:15:16;8.75;;;8.35;;
16900;SDS011;8567;52.540;6.434;2022-09-02T13:17:54;9.43;;;9.02;;
16900;SDS011;8567;52.540;6.434;2022-09-02T13:20:51;9.27;;;8.88;;
16900;SDS011;8567;52.540;6.434;2022-09-02T13:23:41;8.70;;;8.30;;
16900;SDS011;8567;52.540;6.434;2022-09-02T13:26:31;9.23;;;8.82;;
16900;SDS011;8567;52.540;6.434;2022-09-02T13:29:34;8.88;;;8.48;;
16900;SDS011;8567;52.540;6.434;2022-09-02T13:32:26;9.25;;;8.85;;
16900;SDS011;8567;52.540;6.434;2022-09-02T13:34:55;10.63;;;10.13;;
16900;SDS011;8567;52.540;6.434;2022-09-02T13:37:28;10.35;;;9.85;;
16900;SDS011;8567;52.540;6.434;2022-09-02T13:39:56;10.65;;;10.15;;
16900;SDS011;8567;52.540;6.434;2022-09-02T13:42:26;11.35;;;10.85;;
16900;SDS011;8567;52.540;6.434;2022-09-02T13:45:14;11.00;;;10.50;;
16900;SDS011;8567;52.540;6.434;2022-09-02T13:47:43;12.07;;;11.48;;
16900;SDS011;8567;52.540;6.434;2022-09-02T13:50:12;12.38;;;11.68;;
16900;SDS011;8567;52.540;6.434;2022-09-02T13:52:44;15.23;;;14.32;;
16900;SDS011;8567;52.540;6.434;2022-09-02T13:55:13;18.75;;;17.85;;
16900;SDS011;8567;52.540;6.434;2022-09-02T13:57:42;22.23;;;21.13;;
16900;SDS011;8567;52.540;6.434;2022-09-02T14:00:12;25.83;;;24.38;;
16900;SDS011;8567;52.540;6.434;2022-09-02T14:02:58;27.58;;;26.23;;
16900;SDS011;8567;52.540;6.434;2022-09-02T14:05:27;30.13;;;28.65;;
16900;SDS011;8567;52.540;6.434;2022-09-02T14:07:58;29.85;;;28.35;;
16900;SDS011;8567;52.540;6.434;2022-09-02T14:10:28;30.88;;;29.25;;
16900;SDS011;8567;52.540;6.434;2022-09-02T14:12:58;30.42;;;28.83;;
16900;SDS011;8567;52.540;6.434;2022-09-02T14:15:28;32.13;;;30.48;;
16900;SDS011;8567;52.540;6.434;2022-09-02T14:18:06;30.73;;;29.23;;
16900;SDS011;8567;52.540;6.434;2022-09-02T14:20:39;31.65;;;30.05;;
16900;SDS011;8567;52.540;6.434;2022-09-02T14:23:19;32.58;;;30.95;;
16900;SDS011;8567;52.540;6.434;2022-09-02T14:25:50;31.23;;;29.52;;
16900;SDS011;8567;52.540;6.434;2022-09-02T14:28:19;30.10;;;28.60;;
16900;SDS011;8567;52.540;6.434;2022-09-02T14:30:58;30.30;;;28.77;;
16900;SDS011;8567;52.540;6.434;2022-09-02T14:33:35;28.42;;;27.02;;
16900;SDS011;8567;52.540;6.434;2022-09-02T14:36:05;28.67;;;27.13;;
16900;SDS011;8567;52.540;6.434;2022-09-02T14:38:36;29.55;;;28.10;;
16900;SDS011;8567;52.540;6.434;2022-09-02T14:41:18;29.88;;;28.40;;
16900;SDS011;8567;52.540;6.434;2022-09-02T14:43:47;29.08;;;27.52;;
16900;SDS011;8567;52.540;6.434;2022-09-02T14:46:22;27.83;;;26.35;;
16900;SDS011;8567;52.540;6.434;2022-09-02T14:48:52;25.45;;;24.20;;
16900;SDS011;8567;52.540;6.434;2022-09-02T14:51:21;25.08;;;23.77;;
16900;SDS011;8567;52.540;6.434;2022-09-02T14:53:51;24.95;;;23.65;;
16900;SDS011;8567;52.540;6.434;2022-09-02T14:59:13;22.98;;;21.85;;
16900;SDS011;8567;52.540;6.434;2022-09-02T15:01:40;27.15;;;25.75;;
16900;SDS011;8567;52.540;6.434;2022-09-02T15:04:10;24.55;;;23.23;;
16900;SDS011;8567;52.540;6.434;2022-09-02T15:06:38;25.63;;;24.35;;
16900;SDS011;8567;52.540;6.434;2022-09-02T15:09:06;25.10;;;23.88;;
16900;SDS011;8567;52.540;6.434;2022-09-02T15:11:33;23.27;;;22.15;;
16900;SDS011;8567;52.540;6.434;2022-09-02T15:14:01;23.75;;;22.10;;
16900;SDS011;8567;52.540;6.434;2022-09-02T15:16:28;22.20;;;21.10;;
16900;SDS011;8567;52.540;6.434;2022-09-02T15:18:56;22.40;;;21.23;;
16900;SDS011;8567;52.540;6.434;2022-09-02T15:21:22;21.90;;;20.67;;
16900;SDS011;8567;52.540;6.434;2022-09-02T15:23:49;20.83;;;19.77;;
16900;SDS011;8567;52.540;6.434;2022-09-02T15:26:17;18.60;;;17.70;;
16900;SDS011;8567;52.540;6.434;2022-09-02T15:28:44;21.63;;;20.63;;
16900;SDS011;8567;52.540;6.434;2022-09-02T15:31:10;18.05;;;17.05;;
16900;SDS011;8567;52.540;6.434;2022-09-02T15:33:38;16.40;;;15.50;;
16900;SDS011;8567;52.540;6.434;2022-09-02T15:36:06;15.25;;;14.55;;
16900;SDS011;8567;52.540;6.434;2022-09-02T15:38:34;14.45;;;13.65;;
16900;SDS011;8567;52.540;6.434;2022-09-02T15:41:12;15.95;;;15.18;;
16900;SDS011;8567;52.540;6.434;2022-09-02T15:43:42;12.93;;;12.30;;
16900;SDS011;8567;52.540;6.434;2022-09-02T15:46:15;14.48;;;13.60;;
16900;SDS011;8567;52.540;6.434;2022-09-02T15:48:44;13.65;;;12.85;;
16900;SDS011;8567;52.540;6.434;2022-09-02T15:51:11;13.35;;;12.65;;
16900;SDS011;8567;52.540;6.434;2022-09-02T15:53:38;13.63;;;12.95;;